M V Legend II — HP5804 — position and weather

sailwx.info

Track history (hours):
 
Tides and Currents Weather Stations Pressure Air Temp Water Temp Dewpoint Dewpoint Depression Visibility Wind Speed Wind Dir Waves Ship Positions

M V Legend II

Last reported at 2018-Jul-13 22:17 UTC. Time now 2018-Jul-16 04:33 UTC.
Position N 25°25' W 079°14'.

Length 49 m.

MMSI: 370375000.

Date/timePositionNaut miles runAvg speedWind from/ knotsBaromVisibWave heightAir tempDewpointWater temp
2018-Jul-13 22:17N 25°25' W 079°14'9 0.8
2018-Jul-13 10:40N 25°34' W 079°17'0 0.1
2018-Jul-13 10:25N 25°34' W 079°17'0 0.0
2018-Jul-13 09:59N 25°34' W 079°17'0 0.0
2018-Jul-13 09:24N 25°34' W 079°17'6 3.6
2018-Jul-13 07:51N 25°38' W 079°21'11 7.0
2018-Jul-13 06:13N 25°38' W 079°33'3 7.5
2018-Jul-13 05:50N 25°39' W 079°36'3 7.4
2018-Jul-13 05:27N 25°40' W 079°39'3 7.3
2018-Jul-13 05:00N 25°41' W 079°43'4 7.3
2018-Jul-13 04:30N 25°42' W 079°47'4 7.0
2018-Jul-13 04:00N 25°43' W 079°51'4 7.4
2018-Jul-13 03:30N 25°43' W 079°54'4 7.7
2018-Jul-13 03:00N 25°44' W 079°59'4 8.1
2018-Jul-13 02:31N 25°46' W 080°03'4 8.6
2018-Jul-13 02:00N 25°46' W 080°08'3 6.0
2018-Jul-13 01:30N 25°46' W 080°11'1 2.0
2018-Jul-13 01:01N 25°47' W 080°12'1 2.7
2018-Jul-13 00:31N 25°47' W 080°13'1 2.8
2018-Jul-13 00:00N 25°48' W 080°15'0 0.2
2018-Jul-12 23:30N 25°48' W 080°15'0 0.0
2018-Jul-12 23:01N 25°48' W 080°15'0 0.0
2018-Jul-12 22:30N 25°48' W 080°15'0 0.0
2018-Jul-12 22:00N 25°48' W 080°15'0 0.0
2018-Jul-12 21:31N 25°48' W 080°15'0 0.0
2018-Jul-12 21:01N 25°48' W 080°15'0 0.0
2018-Jul-12 20:28N 25°48' W 080°15'0 0.0
2018-Jul-12 20:00N 25°48' W 080°15'0 0.0
2018-Jul-12 19:31N 25°48' W 080°15'0 0.0
2018-Jul-12 19:00N 25°48' W 080°15'0 0.0
2018-Jul-12 18:31N 25°48' W 080°15'0 0.0
2018-Jul-12 18:00N 25°48' W 080°15'0 0.0
2018-Jul-12 17:31N 25°48' W 080°15'0 0.0
2018-Jul-12 16:59N 25°48' W 080°15'0 0.0
2018-Jul-12 16:31N 25°48' W 080°15'0 0.0
2018-Jul-12 16:00N 25°48' W 080°15'0 0.0
2018-Jul-12 15:30N 25°48' W 080°15'0 0.0
2018-Jul-12 15:00N 25°48' W 080°15'0 0.0
2018-Jul-12 14:30N 25°48' W 080°15'0 0.0
2018-Jul-12 14:01N 25°48' W 080°15'0 0.0
2018-Jul-12 13:29N 25°48' W 080°15'0 0.0
2018-Jul-12 13:00N 25°48' W 080°15'0 0.0
2018-Jul-12 12:30N 25°48' W 080°15'0 0.0
2018-Jul-12 12:00N 25°48' W 080°15'0 0.0
2018-Jul-12 11:31N 25°48' W 080°15'0 0.0
2018-Jul-12 11:01N 25°48' W 080°15'1 1.0
2018-Jul-12 10:31N 25°48' W 080°14'1 2.8
2018-Jul-12 10:01N 25°47' W 080°13'1 2.7
2018-Jul-12 09:31N 25°46' W 080°12'1 1.9
2018-Jul-12 09:00N 25°46' W 080°11'2 4.8
2018-Jul-12 08:31N 25°46' W 080°08'3 6.8
2018-Jul-12 08:01N 25°46' W 080°04'5 9.0
2018-Jul-12 07:30N 25°45' W 079°60'4 8.8
2018-Jul-12 07:00N 25°44' W 079°55'4 8.8
2018-Jul-12 06:30N 25°42' W 079°50'4 8.6
2018-Jul-12 06:00N 25°41' W 079°46'4 8.6
2018-Jul-12 05:30N 25°40' W 079°41'4 8.3
2018-Jul-12 05:00N 25°39' W 079°36'5 9.6
2018-Jul-12 04:30N 25°38' W 079°31'5 0.2
2018-Jul-11 08:59N 25°36' W 079°36'4 7.9
2018-Jul-11 08:29N 25°38' W 079°40'4 7.9
2018-Jul-11 08:00N 25°39' W 079°44'4 7.8
2018-Jul-11 07:30N 25°40' W 079°48'4 7.8
2018-Jul-11 07:00N 25°42' W 079°52'4 7.8
2018-Jul-11 06:30N 25°43' W 079°57'4 8.0
2018-Jul-11 06:00N 25°44' W 080°01'4 8.6
2018-Jul-11 05:30N 25°46' W 080°05'5 9.6
2018-Jul-11 05:00N 25°46' W 080°11'2 3.1
2018-Jul-11 04:30N 25°47' W 080°12'2 3.7
2018-Jul-11 04:00N 25°47' W 080°14'1 1.7
2018-Jul-11 03:30N 25°48' W 080°15'0 0.0
2018-Jul-11 03:00N 25°48' W 080°15'0 0.0
2018-Jul-11 02:30N 25°48' W 080°15'0 0.0
2018-Jul-11 02:00N 25°48' W 080°15'0 0.0
2018-Jul-11 01:31N 25°48' W 080°15'0 0.0
2018-Jul-11 01:00N 25°48' W 080°15'0 0.0
2018-Jul-11 00:29N 25°48' W 080°15'0 0.0
2018-Jul-11 00:00N 25°48' W 080°15'0 0.0
2018-Jul-10 23:29N 25°48' W 080°15'0 0.0
2018-Jul-10 23:00N 25°48' W 080°15'0 0.7
2018-Jul-10 22:31N 25°48' W 080°15'1 2.7
2018-Jul-10 22:01N 25°47' W 080°13'1 2.9
2018-Jul-10 21:30N 25°46' W 080°12'1 2.3
2018-Jul-10 21:00N 25°46' W 080°11'1 1.9
2018-Jul-10 20:30N 25°46' W 080°10'5 9.6
2018-Jul-10 20:00N 25°46' W 080°04'611.3
2018-Jul-10 19:30N 25°44' W 079°58'611.3
2018-Jul-10 18:59N 25°43' W 079°52'611.3
2018-Jul-10 18:30N 25°41' W 079°46'611.1
2018-Jul-10 17:59N 25°40' W 079°40'511.0
2018-Jul-10 17:30N 25°38' W 079°34'  
2018-Jul-06 08:57N 25°35' W 079°36'4 8.6
2018-Jul-06 08:29N 25°36' W 079°40'4 8.5
2018-Jul-06 08:00N 25°38' W 079°45'4 8.5
2018-Jul-06 07:30N 25°40' W 079°49'4 8.4
2018-Jul-06 07:00N 25°42' W 079°53'4 8.6
2018-Jul-06 06:30N 25°43' W 079°57'4 8.7
2018-Jul-06 06:00N 25°45' W 080°02'3 6.8
2018-Jul-06 05:30N 25°46' W 080°06'4 7.8
2018-Jul-06 05:00N 25°46' W 080°10'2 3.5
2018-Jul-06 04:30N 25°46' W 080°12'1 2.8
2018-Jul-06 04:00N 25°47' W 080°13'1 2.6
2018-Jul-06 03:30N 25°48' W 080°14'1 1.3
2018-Jul-06 03:00N 25°48' W 080°15'0 0.0
2018-Jul-06 02:30N 25°48' W 080°15'0 0.0
2018-Jul-06 02:00N 25°48' W 080°15'0 0.0
2018-Jul-06 01:30N 25°48' W 080°15'0 0.0
2018-Jul-06 00:59N 25°48' W 080°15'0 0.0
2018-Jul-06 00:30N 25°48' W 080°15'0 0.0
2018-Jul-06 00:00N 25°48' W 080°15'0 0.0
2018-Jul-05 23:30N 25°48' W 080°15'0 0.0
2018-Jul-05 22:59N 25°48' W 080°15'0 0.0
2018-Jul-05 22:30N 25°48' W 080°15'0 0.0
2018-Jul-05 22:00N 25°48' W 080°15'0 0.0
2018-Jul-05 21:30N 25°48' W 080°15'0 0.0
2018-Jul-05 21:00N 25°48' W 080°15'0 0.0
2018-Jul-05 20:30N 25°48' W 080°15'0 0.0
2018-Jul-05 20:00N 25°48' W 080°15'0 0.0
2018-Jul-05 19:30N 25°48' W 080°15'0 0.0
2018-Jul-05 19:00N 25°48' W 080°15'0 0.0
2018-Jul-05 18:30N 25°48' W 080°15'0 0.0
2018-Jul-05 18:00N 25°48' W 080°15'0 0.0
2018-Jul-05 17:30N 25°48' W 080°15'0 0.0
2018-Jul-05 17:00N 25°48' W 080°15'0 0.0
2018-Jul-05 16:30N 25°48' W 080°15'0 0.0
2018-Jul-05 16:00N 25°48' W 080°15'0 0.0
2018-Jul-05 15:30N 25°48' W 080°15'0 0.0
2018-Jul-05 15:00N 25°48' W 080°15'0 0.0
2018-Jul-05 14:00N 25°48' W 080°15'0 0.0
2018-Jul-05 13:30N 25°48' W 080°15'0 0.0
2018-Jul-05 13:01N 25°48' W 080°15'0 0.0
2018-Jul-05 12:30N 25°48' W 080°15'0 0.0
2018-Jul-05 12:00N 25°48' W 080°15'0 0.0
2018-Jul-05 11:31N 25°48' W 080°15'0 0.0
2018-Jul-05 11:00N 25°48' W 080°15'0 0.0
2018-Jul-05 10:30N 25°48' W 080°15'0 0.0
2018-Jul-05 10:00N 25°48' W 080°15'0 0.0
2018-Jul-05 09:29N 25°48' W 080°15'0 0.0
2018-Jul-05 08:59N 25°48' W 080°15'0 0.0
2018-Jul-05 08:30N 25°48' W 080°15'0 0.0
2018-Jul-05 08:00N 25°48' W 080°15'0 0.0
2018-Jul-05 07:30N 25°48' W 080°15'0 0.0
2018-Jul-05 07:00N 25°48' W 080°15'0 0.0
2018-Jul-05 06:29N 25°48' W 080°15'0 0.0
2018-Jul-05 06:00N 25°48' W 080°15'0 0.0
2018-Jul-05 05:30N 25°48' W 080°15'0 0.0
2018-Jul-05 05:00N 25°48' W 080°15'0 0.0
2018-Jul-05 04:30N 25°48' W 080°15'0 0.0
2018-Jul-05 04:00N 25°48' W 080°15'0 0.0
2018-Jul-05 03:30N 25°48' W 080°15'0 0.0
2018-Jul-05 03:00N 25°48' W 080°15'0 0.0
2018-Jul-05 02:30N 25°48' W 080°15'0 0.0
2018-Jul-05 02:00N 25°48' W 080°15'0 0.0
2018-Jul-05 01:30N 25°48' W 080°15'1 2.2
2018-Jul-05 00:59N 25°47' W 080°14'1 2.6
2018-Jul-05 00:30N 25°47' W 080°13'1 2.4
2018-Jul-05 00:00N 25°46' W 080°11'1 2.1
2018-Jul-04 23:30N 25°46' W 080°10'3 6.5
2018-Jul-04 23:00N 25°46' W 080°07'4 8.6
2018-Jul-04 22:30N 25°45' W 080°02'4 8.1
2018-Jul-04 22:00N 25°43' W 079°58'4 7.8
2018-Jul-04 21:30N 25°41' W 079°54'3 6.8
2018-Jul-04 21:00N 25°40' W 079°51'4 6.8
2018-Jul-04 20:29N 25°38' W 079°47'3 7.0
2018-Jul-04 20:00N 25°37' W 079°44'3 6.9
2018-Jul-04 19:30N 25°36' W 079°40'4 6.9
2018-Jul-04 18:58N 25°34' W 079°37'7 0.6
2018-Jul-04 07:11N 25°37' W 079°43'1 7.7
2018-Jul-04 07:00N 25°37' W 079°45'4 7.5
2018-Jul-04 06:30N 25°39' W 079°48'4 7.3
2018-Jul-04 06:00N 25°41' W 079°52'4 7.6
2018-Jul-04 05:30N 25°42' W 079°56'4 7.8
2018-Jul-04 05:00N 25°44' W 079°60'4 8.4
2018-Jul-04 04:31N 25°46' W 080°04'4 7.9
2018-Jul-04 04:00N 25°46' W 080°08'3 5.6
2018-Jul-04 03:31N 25°46' W 080°11'1 2.9
2018-Jul-04 03:00N 25°47' W 080°13'1 2.8
2018-Jul-04 02:30N 25°48' W 080°14'1 1.2
2018-Jul-04 01:59N 25°48' W 080°15'0 0.0
2018-Jul-04 01:30N 25°48' W 080°15'0 0.0
2018-Jul-04 01:00N 25°48' W 080°15'0 0.0
2018-Jul-04 00:30N 25°48' W 080°15'0 0.0
2018-Jul-04 00:00N 25°48' W 080°15'0 0.0
2018-Jul-03 23:30N 25°48' W 080°15'0 0.0
2018-Jul-03 23:00N 25°48' W 080°15'0 0.0
2018-Jul-03 22:30N 25°48' W 080°15'  
Track history (hours):
 
Tides and Currents Weather Stations Pressure Air Temp Water Temp Dewpoint Dewpoint Depression Visibility Wind Speed Wind Dir Waves Ship Positions

M V Legend II

Last reported at 2018-Jul-13 22:17 UTC. Time now 2018-Jul-16 04:33 UTC.
Position N 25°25' W 079°14'.

Length 49 m.

MMSI: 370375000.

Date/timePositionNaut miles runAvg speedWind from/ knotsBaromVisibWave heightAir tempDewpointWater temp
2018-Jul-13 22:17N 25°25' W 079°14'9 0.8
2018-Jul-13 10:40N 25°34' W 079°17'0 0.1
2018-Jul-13 10:25N 25°34' W 079°17'0 0.0
2018-Jul-13 09:59N 25°34' W 079°17'0 0.0
2018-Jul-13 09:24N 25°34' W 079°17'6 3.6
2018-Jul-13 07:51N 25°38' W 079°21'11 7.0
2018-Jul-13 06:13N 25°38' W 079°33'3 7.5
2018-Jul-13 05:50N 25°39' W 079°36'3 7.4
2018-Jul-13 05:27N 25°40' W 079°39'3 7.3
2018-Jul-13 05:00N 25°41' W 079°43'4 7.3
2018-Jul-13 04:30N 25°42' W 079°47'4 7.0
2018-Jul-13 04:00N 25°43' W 079°51'4 7.4
2018-Jul-13 03:30N 25°43' W 079°54'4 7.7
2018-Jul-13 03:00N 25°44' W 079°59'4 8.1
2018-Jul-13 02:31N 25°46' W 080°03'4 8.6
2018-Jul-13 02:00N 25°46' W 080°08'3 6.0
2018-Jul-13 01:30N 25°46' W 080°11'1 2.0
2018-Jul-13 01:01N 25°47' W 080°12'1 2.7
2018-Jul-13 00:31N 25°47' W 080°13'1 2.8
2018-Jul-13 00:00N 25°48' W 080°15'0 0.2
2018-Jul-12 23:30N 25°48' W 080°15'0 0.0
2018-Jul-12 23:01N 25°48' W 080°15'0 0.0
2018-Jul-12 22:30N 25°48' W 080°15'0 0.0
2018-Jul-12 22:00N 25°48' W 080°15'0 0.0
2018-Jul-12 21:31N 25°48' W 080°15'0 0.0
2018-Jul-12 21:01N 25°48' W 080°15'0 0.0
2018-Jul-12 20:28N 25°48' W 080°15'0 0.0
2018-Jul-12 20:00N 25°48' W 080°15'0 0.0
2018-Jul-12 19:31N 25°48' W 080°15'0 0.0
2018-Jul-12 19:00N 25°48' W 080°15'0 0.0
2018-Jul-12 18:31N 25°48' W 080°15'0 0.0
2018-Jul-12 18:00N 25°48' W 080°15'0 0.0
2018-Jul-12 17:31N 25°48' W 080°15'0 0.0
2018-Jul-12 16:59N 25°48' W 080°15'0 0.0
2018-Jul-12 16:31N 25°48' W 080°15'0 0.0
2018-Jul-12 16:00N 25°48' W 080°15'0 0.0
2018-Jul-12 15:30N 25°48' W 080°15'0 0.0
2018-Jul-12 15:00N 25°48' W 080°15'0 0.0
2018-Jul-12 14:30N 25°48' W 080°15'0 0.0
2018-Jul-12 14:01N 25°48' W 080°15'0 0.0
2018-Jul-12 13:29N 25°48' W 080°15'0 0.0
2018-Jul-12 13:00N 25°48' W 080°15'0 0.0
2018-Jul-12 12:30N 25°48' W 080°15'0 0.0
2018-Jul-12 12:00N 25°48' W 080°15'0 0.0
2018-Jul-12 11:31N 25°48' W 080°15'0 0.0
2018-Jul-12 11:01N 25°48' W 080°15'1 1.0
2018-Jul-12 10:31N 25°48' W 080°14'1 2.8
2018-Jul-12 10:01N 25°47' W 080°13'1 2.7
2018-Jul-12 09:31N 25°46' W 080°12'1 1.9
2018-Jul-12 09:00N 25°46' W 080°11'2 4.8
2018-Jul-12 08:31N 25°46' W 080°08'3 6.8
2018-Jul-12 08:01N 25°46' W 080°04'5 9.0
2018-Jul-12 07:30N 25°45' W 079°60'4 8.8
2018-Jul-12 07:00N 25°44' W 079°55'4 8.8
2018-Jul-12 06:30N 25°42' W 079°50'4 8.6
2018-Jul-12 06:00N 25°41' W 079°46'4 8.6
2018-Jul-12 05:30N 25°40' W 079°41'4 8.3
2018-Jul-12 05:00N 25°39' W 079°36'5 9.6
2018-Jul-12 04:30N 25°38' W 079°31'5 0.2
2018-Jul-11 08:59N 25°36' W 079°36'4 7.9
2018-Jul-11 08:29N 25°38' W 079°40'4 7.9
2018-Jul-11 08:00N 25°39' W 079°44'4 7.8
2018-Jul-11 07:30N 25°40' W 079°48'4 7.8
2018-Jul-11 07:00N 25°42' W 079°52'4 7.8
2018-Jul-11 06:30N 25°43' W 079°57'4 8.0
2018-Jul-11 06:00N 25°44' W 080°01'4 8.6
2018-Jul-11 05:30N 25°46' W 080°05'5 9.6
2018-Jul-11 05:00N 25°46' W 080°11'2 3.1
2018-Jul-11 04:30N 25°47' W 080°12'2 3.7
2018-Jul-11 04:00N 25°47' W 080°14'1 1.7
2018-Jul-11 03:30N 25°48' W 080°15'0 0.0
2018-Jul-11 03:00N 25°48' W 080°15'0 0.0
2018-Jul-11 02:30N 25°48' W 080°15'0 0.0
2018-Jul-11 02:00N 25°48' W 080°15'0 0.0
2018-Jul-11 01:31N 25°48' W 080°15'0 0.0
2018-Jul-11 01:00N 25°48' W 080°15'0 0.0
2018-Jul-11 00:29N 25°48' W 080°15'0 0.0
2018-Jul-11 00:00N 25°48' W 080°15'0 0.0
2018-Jul-10 23:29N 25°48' W 080°15'0 0.0
2018-Jul-10 23:00N 25°48' W 080°15'0 0.7
2018-Jul-10 22:31N 25°48' W 080°15'1 2.7
2018-Jul-10 22:01N 25°47' W 080°13'1 2.9
2018-Jul-10 21:30N 25°46' W 080°12'1 2.3
2018-Jul-10 21:00N 25°46' W 080°11'1 1.9
2018-Jul-10 20:30N 25°46' W 080°10'5 9.6
2018-Jul-10 20:00N 25°46' W 080°04'611.3
2018-Jul-10 19:30N 25°44' W 079°58'611.3
2018-Jul-10 18:59N 25°43' W 079°52'611.3
2018-Jul-10 18:30N 25°41' W 079°46'611.1
2018-Jul-10 17:59N 25°40' W 079°40'511.0
2018-Jul-10 17:30N 25°38' W 079°34'  
2018-Jul-06 08:57N 25°35' W 079°36'4 8.6
2018-Jul-06 08:29N 25°36' W 079°40'4 8.5
2018-Jul-06 08:00N 25°38' W 079°45'4 8.5
2018-Jul-06 07:30N 25°40' W 079°49'4 8.4
2018-Jul-06 07:00N 25°42' W 079°53'4 8.6
2018-Jul-06 06:30N 25°43' W 079°57'4 8.7
2018-Jul-06 06:00N 25°45' W 080°02'3 6.8
2018-Jul-06 05:30N 25°46' W 080°06'4 7.8
2018-Jul-06 05:00N 25°46' W 080°10'2 3.5
2018-Jul-06 04:30N 25°46' W 080°12'1 2.8
2018-Jul-06 04:00N 25°47' W 080°13'1 2.6
2018-Jul-06 03:30N 25°48' W 080°14'1 1.3
2018-Jul-06 03:00N 25°48' W 080°15'0 0.0
2018-Jul-06 02:30N 25°48' W 080°15'0 0.0
2018-Jul-06 02:00N 25°48' W 080°15'0 0.0
2018-Jul-06 01:30N 25°48' W 080°15'0 0.0
2018-Jul-06 00:59N 25°48' W 080°15'0 0.0
2018-Jul-06 00:30N 25°48' W 080°15'0 0.0
2018-Jul-06 00:00N 25°48' W 080°15'0 0.0
2018-Jul-05 23:30N 25°48' W 080°15'0 0.0
2018-Jul-05 22:59N 25°48' W 080°15'0 0.0
2018-Jul-05 22:30N 25°48' W 080°15'0 0.0
2018-Jul-05 22:00N 25°48' W 080°15'0 0.0
2018-Jul-05 21:30N 25°48' W 080°15'0 0.0
2018-Jul-05 21:00N 25°48' W 080°15'0 0.0
2018-Jul-05 20:30N 25°48' W 080°15'0 0.0
2018-Jul-05 20:00N 25°48' W 080°15'0 0.0
2018-Jul-05 19:30N 25°48' W 080°15'0 0.0
2018-Jul-05 19:00N 25°48' W 080°15'0 0.0
2018-Jul-05 18:30N 25°48' W 080°15'0 0.0
2018-Jul-05 18:00N 25°48' W 080°15'0 0.0
2018-Jul-05 17:30N 25°48' W 080°15'0 0.0
2018-Jul-05 17:00N 25°48' W 080°15'0 0.0
2018-Jul-05 16:30N 25°48' W 080°15'0 0.0
2018-Jul-05 16:00N 25°48' W 080°15'0 0.0
2018-Jul-05 15:30N 25°48' W 080°15'0 0.0
2018-Jul-05 15:00N 25°48' W 080°15'0 0.0
2018-Jul-05 14:00N 25°48' W 080°15'0 0.0
2018-Jul-05 13:30N 25°48' W 080°15'0 0.0
2018-Jul-05 13:01N 25°48' W 080°15'0 0.0
2018-Jul-05 12:30N 25°48' W 080°15'0 0.0
2018-Jul-05 12:00N 25°48' W 080°15'0 0.0
2018-Jul-05 11:31N 25°48' W 080°15'0 0.0
2018-Jul-05 11:00N 25°48' W 080°15'0 0.0
2018-Jul-05 10:30N 25°48' W 080°15'0 0.0
2018-Jul-05 10:00N 25°48' W 080°15'0 0.0
2018-Jul-05 09:29N 25°48' W 080°15'0 0.0
2018-Jul-05 08:59N 25°48' W 080°15'0 0.0
2018-Jul-05 08:30N 25°48' W 080°15'0 0.0
2018-Jul-05 08:00N 25°48' W 080°15'0 0.0
2018-Jul-05 07:30N 25°48' W 080°15'0 0.0
2018-Jul-05 07:00N 25°48' W 080°15'0 0.0
2018-Jul-05 06:29N 25°48' W 080°15'0 0.0
2018-Jul-05 06:00N 25°48' W 080°15'0 0.0
2018-Jul-05 05:30N 25°48' W 080°15'0 0.0
2018-Jul-05 05:00N 25°48' W 080°15'0 0.0
2018-Jul-05 04:30N 25°48' W 080°15'0 0.0
2018-Jul-05 04:00N 25°48' W 080°15'0 0.0
2018-Jul-05 03:30N 25°48' W 080°15'0 0.0
2018-Jul-05 03:00N 25°48' W 080°15'0 0.0
2018-Jul-05 02:30N 25°48' W 080°15'0 0.0
2018-Jul-05 02:00N 25°48' W 080°15'0 0.0
2018-Jul-05 01:30N 25°48' W 080°15'1 2.2
2018-Jul-05 00:59N 25°47' W 080°14'1 2.6
2018-Jul-05 00:30N 25°47' W 080°13'1 2.4
2018-Jul-05 00:00N 25°46' W 080°11'1 2.1
2018-Jul-04 23:30N 25°46' W 080°10'3 6.5
2018-Jul-04 23:00N 25°46' W 080°07'4 8.6
2018-Jul-04 22:30N 25°45' W 080°02'4 8.1
2018-Jul-04 22:00N 25°43' W 079°58'4 7.8
2018-Jul-04 21:30N 25°41' W 079°54'3 6.8
2018-Jul-04 21:00N 25°40' W 079°51'4 6.8
2018-Jul-04 20:29N 25°38' W 079°47'3 7.0
2018-Jul-04 20:00N 25°37' W 079°44'3 6.9
2018-Jul-04 19:30N 25°36' W 079°40'4 6.9
2018-Jul-04 18:58N 25°34' W 079°37'7 0.6
2018-Jul-04 07:11N 25°37' W 079°43'1 7.7
2018-Jul-04 07:00N 25°37' W 079°45'4 7.5
2018-Jul-04 06:30N 25°39' W 079°48'4 7.3
2018-Jul-04 06:00N 25°41' W 079°52'4 7.6
2018-Jul-04 05:30N 25°42' W 079°56'4 7.8
2018-Jul-04 05:00N 25°44' W 079°60'4 8.4
2018-Jul-04 04:31N 25°46' W 080°04'4 7.9
2018-Jul-04 04:00N 25°46' W 080°08'3 5.6
2018-Jul-04 03:31N 25°46' W 080°11'1 2.9
2018-Jul-04 03:00N 25°47' W 080°13'1 2.8
2018-Jul-04 02:30N 25°48' W 080°14'1 1.2
2018-Jul-04 01:59N 25°48' W 080°15'0 0.0
2018-Jul-04 01:30N 25°48' W 080°15'0 0.0
2018-Jul-04 01:00N 25°48' W 080°15'0 0.0
2018-Jul-04 00:30N 25°48' W 080°15'0 0.0
2018-Jul-04 00:00N 25°48' W 080°15'0 0.0
2018-Jul-03 23:30N 25°48' W 080°15'0 0.0
2018-Jul-03 23:00N 25°48' W 080°15'0 0.0
2018-Jul-03 22:30N 25°48' W 080°15'  

Dump ship's entire track history